Time;durP1;ratioP1;P1;durP2;ratioP2;P2;SDS_P1;SDS_P2;PMS_P1;PMS_P2;Temp;Humidity;BMP_temperature;BMP_pressure;BME280_temperature;BME280_humidity;BME280_pressure;Samples;Min_cycle;Max_cycle;Signal;HPM_P1;HPM_P2
2022/09/09 00:00:15;;;;;;;2.78;2.58;;;20.40;52.20;;;;;;6130367;23;20222;-85
2022/09/09 00:02:46;;;;;;;2.83;2.53;;;20.30;52.10;;;;;;6082528;23;20210;-85
2022/09/09 00:05:36;;;;;;;2.90;2.60;;;20.30;52.30;;;;;;6130364;23;20244;-83
2022/09/09 00:08:04;;;;;;;2.85;2.65;;;20.30;52.20;;;;;;6083933;23;20157;-85
2022/09/09 00:10:38;;;;;;;2.60;2.40;;;20.30;52.10;;;;;;6081405;23;20187;-84
2022/09/09 00:13:24;;;;;;;2.70;2.50;;;20.30;52.20;;;;;;6083304;23;20155;-84
2022/09/09 00:16:25;;;;;;;2.88;2.65;;;20.30;52.20;;;;;;6130230;23;20131;-84
2022/09/09 00:18:57;;;;;;;2.70;2.50;;;20.40;52.20;;;;;;6130550;23;20622;-85
2022/09/09 00:21:33;;;;;;;2.60;2.40;;;20.40;52.10;;;;;;6106162;23;20246;-84
2022/09/09 00:23:59;;;;;;;3.38;2.70;;;20.30;52.10;;;;;;6106150;23;20155;-85
2022/09/09 00:26:38;;;;;;;2.65;2.45;;;20.30;52.10;;;;;;6130317;23;20560;-84
2022/09/09 00:29:15;;;;;;;2.50;2.30;;;20.30;52.00;;;;;;6106783;23;20127;-85
2022/09/09 00:31:42;;;;;;;3.72;2.75;;;20.30;52.00;;;;;;6130010;23;20131;-84
2022/09/09 00:34:18;;;;;;;2.50;2.30;;;20.30;52.00;;;;;;6106400;23;20140;-84
2022/09/09 00:36:44;;;;;;;3.35;2.40;;;20.30;52.10;;;;;;6076706;23;20172;-85
2022/09/09 00:39:30;;;;;;;3.00;2.75;;;20.30;52.00;;;;;;6100855;23;20152;-84
2022/09/09 00:42:11;;;;;;;2.58;2.38;;;20.30;52.10;;;;;;6128447;23;20175;-85
2022/09/09 00:45:17;;;;;;;2.85;2.50;;;20.30;52.10;;;;;;6078946;23;20223;-84
2022/09/09 00:48:37;;;;;;;4.50;2.78;;;20.30;52.20;;;;;;6041717;23;20599;-84
2022/09/09 00:50:57;;;;;;;2.83;2.63;;;20.30;52.10;;;;;;6064214;23;20161;-85
2022/09/09 00:53:31;;;;;;;2.80;2.60;;;20.30;52.20;;;;;;6042293;23;20248;-84
2022/09/09 00:56:21;;;;;;;2.80;2.60;;;20.30;52.90;;;;;;6019197;23;20157;-83
2022/09/09 00:58:55;;;;;;;3.03;2.40;;;20.30;52.20;;;;;;6022833;23;20162;-83
2022/09/09 01:01:21;;;;;;;2.72;2.53;;;20.30;52.10;;;;;;6042893;23;20165;-84
2022/09/09 01:03:53;;;;;;;2.50;2.30;;;20.30;52.20;;;;;;6042174;23;20196;-84
2022/09/09 01:06:33;;;;;;;3.30;2.50;;;20.30;52.20;;;;;;6019150;23;20180;-84
2022/09/09 01:09:16;;;;;;;2.70;2.50;;;20.30;52.20;;;;;;6041950;23;20192;-84
2022/09/09 01:12:10;;;;;;;2.50;2.30;;;20.30;52.30;;;;;;6045158;23;20162;-84
2022/09/09 01:14:44;;;;;;;2.80;2.60;;;20.30;52.30;;;;;;6020711;23;20164;-84
2022/09/09 01:17:31;;;;;;;2.58;2.38;;;20.20;53.00;;;;;;6019182;23;20266;-84
2022/09/09 01:20:17;;;;;;;5.15;2.78;;;20.30;52.30;;;;;;6035743;23;20180;-84
2022/09/09 01:23:04;;;;;;;2.75;2.47;;;20.30;52.30;;;;;;6100915;23;20148;-84
2022/09/09 01:26:03;;;;;;;2.50;2.30;;;20.30;52.30;;;;;;6105070;23;20151;-85
2022/09/09 01:28:29;;;;;;;2.60;2.40;;;20.30;52.30;;;;;;6080372;23;20519;-84
2022/09/09 01:30:59;;;;;;;2.85;2.60;;;20.30;52.30;;;;;;6101142;23;20580;-84
2022/09/09 01:33:26;;;;;;;3.53;2.50;;;20.30;52.50;;;;;;6052044;23;20647;-83
2022/09/09 01:36:00;;;;;;;2.55;2.35;;;20.20;52.40;;;;;;6075510;23;20636;-85
2022/09/09 01:38:30;;;;;;;3.42;2.65;;;20.20;52.40;;;;;;5996203;23;20161;-83
2022/09/09 01:40:58;;;;;;;2.50;2.30;;;20.20;52.40;;;;;;6041927;23;20185;-84
2022/09/09 01:43:25;;;;;;;2.70;2.50;;;20.30;52.40;;;;;;5994579;23;20161;-85
2022/09/09 01:45:53;;;;;;;2.70;2.50;;;20.20;52.40;;;;;;5970963;23;20157;-84
2022/09/09 01:48:21;;;;;;;2.92;2.63;;;20.20;52.50;;;;;;5948719;23;20157;-83
2022/09/09 01:50:50;;;;;;;2.70;2.50;;;20.20;52.50;;;;;;5995138;23;20161;-84
2022/09/09 01:53:18;;;;;;;2.42;2.22;;;20.20;52.50;;;;;;5973384;23;20171;-85
2022/09/09 01:55:59;;;;;;;2.88;2.50;;;20.20;52.50;;;;;;5995281;23;20160;-84
2022/09/09 01:58:54;;;;;;;2.75;2.55;;;20.20;52.50;;;;;;6042575;23;20296;-84
2022/09/09 02:01:44;;;;;;;3.05;2.80;;;20.20;52.60;;;;;;6045639;23;20379;-84
2022/09/09 02:04:29;;;;;;;2.85;2.65;;;20.20;53.30;;;;;;6041548;23;20162;-85
2022/09/09 02:06:59;;;;;;;3.15;2.47;;;20.20;52.60;;;;;;5992692;23;20162;-85
2022/09/09 02:09:26;;;;;;;2.63;2.28;;;20.20;52.50;;;;;;6072248;23;20156;-85
2022/09/09 02:11:59;;;;;;;2.47;2.20;;;20.20;52.50;;;;;;6075252;23;20163;-84
2022/09/09 02:14:32;;;;;;;2.58;2.38;;;20.20;52.60;;;;;;6100200;23;20256;-85
2022/09/09 02:17:03;;;;;;;2.60;2.40;;;20.20;52.50;;;;;;6100315;23;20164;-84
2022/09/09 02:19:34;;;;;;;2.70;2.50;;;20.20;52.60;;;;;;6074509;23;20153;-85
2022/09/09 02:22:01;;;;;;;2.30;2.10;;;20.20;52.50;;;;;;6071728;23;20191;-84
2022/09/09 02:24:29;;;;;;;2.65;2.45;;;20.20;52.60;;;;;;6095913;23;20165;-84
2022/09/09 02:26:56;;;;;;;2.67;2.47;;;20.20;53.30;;;;;;6096009;23;20153;-83
2022/09/09 02:29:26;;;;;;;2.65;2.45;;;20.20;52.60;;;;;;6095981;23;20264;-85
2022/09/09 02:31:54;;;;;;;3.28;2.45;;;20.20;52.60;;;;;;6071987;23;20163;-85
2022/09/09 02:34:24;;;;;;;2.65;2.40;;;20.20;52.60;;;;;;6071916;23;20137;-84
2022/09/09 02:36:49;;;;;;;2.47;2.28;;;20.10;52.60;;;;;;6067239;23;20244;-85
2022/09/09 02:40:03;;;;;;;;;;;;;;;;;;;;;
2022/09/09 02:42:31;;;;;;;2.83;2.40;;;20.20;52.70;;;;;;5972075;23;20254;-84
2022/09/09 02:45:06;;;;;;;2.92;2.20;;;20.10;52.60;;;;;;5949200;24;20590;-84
2022/09/09 02:47:36;;;;;;;3.25;2.60;;;20.20;52.60;;;;;;5926662;24;20485;-84
2022/09/09 02:50:10;;;;;;;2.50;2.30;;;20.10;52.60;;;;;;5972294;24;20156;-84
2022/09/09 02:52:55;;;;;;;2.45;2.25;;;20.20;52.70;;;;;;5949545;24;20157;-84
2022/09/09 02:55:36;;;;;;;2.70;2.40;;;20.10;52.60;;;;;;5947792;24;20228;-84
2022/09/09 02:58:04;;;;;;;2.47;2.28;;;20.20;52.70;;;;;;5948800;24;20508;-85
2022/09/09 03:00:30;;;;;;;2.60;2.40;;;20.20;52.70;;;;;;5948856;24;20755;-84
2022/09/09 03:02:58;;;;;;;2.50;2.30;;;20.20;52.60;;;;;;5926420;24;20157;-84
2022/09/09 03:05:26;;;;;;;5.00;2.30;;;20.20;52.70;;;;;;5948985;24;20270;-84
2022/09/09 03:07:51;;;;;;;2.45;2.25;;;20.20;52.70;;;;;;5949143;24;20563;-84
2022/09/09 03:10:17;;;;;;;2.60;2.40;;;20.20;52.70;;;;;;5949617;24;20199;-85
2022/09/09 03:12:45;;;;;;;2.63;2.42;;;20.10;52.70;;;;;;5949228;24;20165;-85
2022/09/09 03:15:11;;;;;;;2.70;2.50;;;20.10;52.70;;;;;;5960281;23;20163;-84
2022/09/09 03:17:37;;;;;;;2.65;2.45;;;20.10;52.70;;;;;;6005351;23;20218;-84
2022/09/09 03:20:03;;;;;;;2.70;2.50;;;20.10;52.80;;;;;;6104067;23;20262;-84
2022/09/09 03:22:30;;;;;;;2.88;2.63;;;20.10;52.70;;;;;;6077700;23;20148;-85
2022/09/09 03:24:56;;;;;;;2.60;2.40;;;20.20;52.80;;;;;;6101754;23;20461;-84
2022/09/09 03:27:22;;;;;;;2.80;2.60;;;20.20;52.80;;;;;;6101292;23;20156;-84
2022/09/09 03:29:50;;;;;;;2.95;2.10;;;20.10;52.80;;;;;;6127088;23;20136;-84
2022/09/09 03:32:17;;;;;;;2.65;2.45;;;20.20;52.80;;;;;;6101646;23;20468;-84
2022/09/09 03:34:43;;;;;;;3.40;2.50;;;20.20;52.90;;;;;;6082242;23;20615;-84
2022/09/09 03:37:08;;;;;;;2.50;2.30;;;20.20;52.80;;;;;;6106602;23;20146;-84
2022/09/09 03:39:34;;;;;;;2.60;2.40;;;20.10;52.80;;;;;;6106062;23;20629;-84
2022/09/09 03:42:03;;;;;;;2.83;2.50;;;20.20;52.80;;;;;;6082738;23;20179;-84
2022/09/09 03:44:30;;;;;;;2.47;2.28;;;20.10;52.80;;;;;;6130671;23;20151;-84
2022/09/09 03:46:56;;;;;;;2.60;2.40;;;20.20;52.80;;;;;;6130184;23;20135;-84
2022/09/09 03:49:22;;;;;;;2.53;2.33;;;20.10;52.80;;;;;;6130521;23;20586;-85
2022/09/09 03:51:48;;;;;;;2.75;2.53;;;20.10;52.80;;;;;;6082448;23;20152;-84
2022/09/09 03:54:14;;;;;;;2.72;2.10;;;20.20;52.80;;;;;;6106055;23;20139;-84
2022/09/09 03:56:41;;;;;;;2.50;2.30;;;20.10;52.80;;;;;;6106099;23;20222;-84
2022/09/09 03:59:08;;;;;;;2.53;2.33;;;20.10;52.80;;;;;;6082431;23;20152;-83
2022/09/09 04:01:34;;;;;;;2.50;2.30;;;20.20;52.90;;;;;;6082335;23;20559;-84
2022/09/09 04:04:03;;;;;;;2.60;2.40;;;20.10;52.90;;;;;;6179543;23;20238;-84
2022/09/09 04:06:29;;;;;;;2.72;2.40;;;20.10;52.90;;;;;;6107126;23;20207;-84
2022/09/09 04:08:55;;;;;;;2.60;2.40;;;20.10;52.90;;;;;;6106410;23;20151;-84
2022/09/09 04:11:21;;;;;;;2.67;2.47;;;20.10;52.90;;;;;;6130373;23;20136;-84
2022/09/09 04:13:47;;;;;;;2.45;2.25;;;20.10;53.00;;;;;;6130370;23;20218;-84
2022/09/09 04:16:13;;;;;;;2.22;2.03;;;20.10;53.00;;;;;;6106143;23;20210;-84
2022/09/09 04:18:39;;;;;;;2.65;2.45;;;20.10;53.10;;;;;;6081686;23;20598;-86
2022/09/09 04:21:05;;;;;;;2.40;2.20;;;20.10;53.10;;;;;;6105663;23;20170;-84
2022/09/09 04:23:33;;;;;;;2.70;2.45;;;20.10;53.10;;;;;;6106348;23;20132;-84
2022/09/09 04:25:59;;;;;;;2.40;2.20;;;20.10;53.10;;;;;;6082981;23;20187;-85
2022/09/09 04:28:26;;;;;;;2.42;2.22;;;20.10;53.10;;;;;;6082219;23;20199;-84
2022/09/09 04:30:52;;;;;;;2.65;2.45;;;20.10;53.10;;;;;;6081989;23;20155;-85
2022/09/09 04:33:18;;;;;;;2.72;2.53;;;20.10;53.10;;;;;;6081856;23;20151;-84
2022/09/09 04:36:36;;;;;;;2.30;2.00;;;20.10;53.10;;;;;;6081166;23;20278;-85
2022/09/09 04:38:54;;;;;;;;;;;;;;;;;;;;;
2022/09/09 04:41:23;;;;;;;2.63;2.42;;;20.00;53.00;;;;;;6009271;23;20275;-83
2022/09/09 04:43:49;;;;;;;3.20;2.42;;;20.00;53.10;;;;;;6065614;23;20360;-83
2022/09/09 04:46:17;;;;;;;2.47;2.28;;;20.10;53.20;;;;;;6066332;23;20614;-84
2022/09/09 04:48:43;;;;;;;2.70;2.50;;;20.00;53.20;;;;;;6042025;23;20153;-83
2022/09/09 04:51:11;;;;;;;2.75;2.20;;;20.00;53.20;;;;;;6089977;23;20171;-83
2022/09/09 04:53:37;;;;;;;2.72;2.53;;;20.00;53.20;;;;;;6042323;23;20160;-83
2022/09/09 04:56:06;;;;;;;2.20;2.00;;;20.00;53.20;;;;;;6089794;23;20134;-84
2022/09/09 04:58:32;;;;;;;2.58;2.38;;;20.00;53.20;;;;;;6089878;23;20197;-83
2022/09/09 05:01:15;;;;;;;2.60;2.40;;;20.00;53.20;;;;;;6065847;23;20195;-84
2022/09/09 05:03:41;;;;;;;3.08;2.22;;;20.00;53.20;;;;;;6141617;23;20234;-83
2022/09/09 05:06:10;;;;;;;2.10;1.90;;;20.00;53.20;;;;;;6129693;23;20541;-85
2022/09/09 05:08:37;;;;;;;1.98;1.83;;;20.10;53.10;;;;;;6106232;23;20139;-84
2022/09/09 05:11:04;;;;;;;1.90;1.80;;;20.10;53.00;;;;;;6081423;23;20198;-83
2022/09/09 05:13:31;;;;;;;1.90;1.80;;;20.10;53.00;;;;;;6130109;23;20139;-84
2022/09/09 05:15:57;;;;;;;1.85;1.75;;;20.10;52.90;;;;;;6130631;23;20468;-84
2022/09/09 05:18:23;;;;;;;2.08;1.88;;;20.10;53.00;;;;;;6154188;23;20238;-85
2022/09/09 05:20:50;;;;;;;1.45;1.35;;;20.10;53.10;;;;;;6105344;23;20222;-85
2022/09/09 05:23:16;;;;;;;1.58;1.48;;;20.00;53.20;;;;;;6082397;23;20180;-85
2022/09/09 05:25:43;;;;;;;2.28;1.50;;;20.00;53.10;;;;;;6129888;23;20227;-85
2022/09/09 05:28:09;;;;;;;1.52;1.42;;;20.00;53.20;;;;;;6082182;23;20147;-85
2022/09/09 05:30:34;;;;;;;1.60;1.50;;;20.00;53.20;;;;;;6105484;23;20146;-84
2022/09/09 05:33:00;;;;;;;1.63;1.40;;;20.00;53.20;;;;;;6129722;23;20210;-84
2022/09/09 05:35:26;;;;;;;1.75;1.60;;;20.00;53.30;;;;;;6129511;23;20269;-84
2022/09/09 05:37:52;;;;;;;1.80;1.40;;;20.00;53.20;;;;;;6154503;23;20159;-83
2022/09/09 05:40:18;;;;;;;1.65;1.55;;;20.00;53.20;;;;;;6155671;23;20303;-84
2022/09/09 05:42:44;;;;;;;1.88;1.30;;;20.00;53.20;;;;;;6129717;23;20215;-85
2022/09/09 05:45:09;;;;;;;1.35;1.25;;;20.00;53.20;;;;;;6155677;23;20226;-83
2022/09/09 05:47:37;;;;;;;1.50;1.40;;;20.00;53.10;;;;;;6105399;23;20202;-84
2022/09/09 05:50:03;;;;;;;0.90;0.90;;;20.10;53.20;;;;;;6129938;23;20152;-84
2022/09/09 05:52:28;;;;;;;1.42;1.33;;;20.10;53.10;;;;;;6081419;23;20159;-84
2022/09/09 05:54:56;;;;;;;1.40;1.30;;;20.10;53.20;;;;;;6129696;23;20136;-84
2022/09/09 05:57:26;;;;;;;1.30;1.20;;;20.10;53.00;;;;;;6107006;23;20159;-84
2022/09/09 05:59:53;;;;;;;1.58;1.48;;;20.10;53.20;;;;;;6082520;23;20165;-84
2022/09/09 06:02:19;;;;;;;1.58;1.48;;;20.00;53.50;;;;;;6043282;23;20158;-84
2022/09/09 06:04:44;;;;;;;1.20;0.98;;;20.10;53.40;;;;;;6067650;23;20221;-84
2022/09/09 06:07:10;;;;;;;1.48;1.10;;;20.10;54.10;;;;;;6043832;23;20157;-83
2022/09/09 06:09:37;;;;;;;1.33;1.23;;;20.10;53.40;;;;;;5996937;23;20157;-84
2022/09/09 06:12:03;;;;;;;1.40;1.20;;;20.10;53.20;;;;;;6067229;23;20161;-84
2022/09/09 06:14:32;;;;;;;1.00;0.90;;;20.10;53.20;;;;;;6019710;23;20177;-84
2022/09/09 06:16:59;;;;;;;1.30;1.20;;;20.10;53.20;;;;;;5996160;23;20169;-86
2022/09/09 06:19:27;;;;;;;1.75;1.23;;;20.10;53.20;;;;;;6043574;23;20239;-85
2022/09/09 06:21:53;;;;;;;1.63;1.10;;;20.10;53.10;;;;;;6043253;23;20238;-84
2022/09/09 06:24:19;;;;;;;2.55;1.30;;;20.10;52.90;;;;;;6019615;23;20600;-84
2022/09/09 06:26:45;;;;;;;2.22;1.20;;;20.10;52.70;;;;;;6020003;23;20145;-85
2022/09/09 06:29:25;;;;;;;;;;;;;;;;;;;;;
2022/09/09 06:32:02;;;;;;;1.25;1.00;;;20.20;52.50;;;;;;5986453;23;20239;-85
2022/09/09 06:34:34;;;;;;;1.38;1.13;;;20.10;52.10;;;;;;6086718;23;20155;-84
2022/09/09 06:36:59;;;;;;;1.20;1.10;;;20.10;52.00;;;;;;6107898;23;20687;-84
2022/09/09 06:39:25;;;;;;;1.00;1.00;;;20.10;51.70;;;;;;6107014;23;20168;-84
2022/09/09 06:41:53;;;;;;;1.55;1.20;;;20.20;51.70;;;;;;6131706;23;20485;-85
2022/09/09 06:44:20;;;;;;;1.40;1.30;;;20.20;51.40;;;;;;6058475;23;20290;-84
2022/09/09 06:46:47;;;;;;;1.02;1.00;;;20.10;51.40;;;;;;6057985;23;20152;-83
2022/09/09 06:49:14;;;;;;;1.00;0.80;;;20.10;51.30;;;;;;6082610;23;20214;-83
2022/09/09 06:51:43;;;;;;;1.33;1.23;;;20.20;51.20;;;;;;6105947;23;20231;-83
2022/09/09 06:54:09;;;;;;;1.00;0.90;;;20.20;51.10;;;;;;6107267;23;20165;-83
2022/09/09 06:56:37;;;;;;;0.93;0.90;;;20.20;51.00;;;;;;6131182;23;20170;-85
2022/09/09 06:59:04;;;;;;;1.10;1.00;;;20.20;50.70;;;;;;6106798;23;20190;-85
2022/09/09 07:01:32;;;;;;;1.15;1.05;;;20.30;50.70;;;;;;6106913;23;20167;-85
2022/09/09 07:03:59;;;;;;;1.02;0.93;;;20.20;50.60;;;;;;6106814;23;20132;-83
2022/09/09 07:06:29;;;;;;;1.20;1.10;;;20.30;50.50;;;;;;6107068;23;20127;-84
2022/09/09 07:08:58;;;;;;;0.90;0.90;;;20.30;50.40;;;;;;6107179;23;20210;-84
2022/09/09 07:11:27;;;;;;;0.90;0.90;;;20.30;50.20;;;;;;6083122;23;20226;-84
2022/09/09 07:13:53;;;;;;;1.08;0.98;;;20.30;50.20;;;;;;6106756;23;20139;-85
2022/09/09 07:16:24;;;;;;;1.08;1.00;;;20.40;50.10;;;;;;6131383;23;20206;-84
2022/09/09 07:18:52;;;;;;;0.82;0.82;;;20.40;50.10;;;;;;6060257;23;20218;-85
2022/09/09 07:21:21;;;;;;;1.08;0.98;;;20.40;49.80;;;;;;6057765;23;20194;-83
2022/09/09 07:23:49;;;;;;;1.50;1.40;;;20.40;49.90;;;;;;6034717;23;20605;-84
2022/09/09 07:26:17;;;;;;;1.10;1.00;;;20.40;50.10;;;;;;6034091;23;20499;-84
2022/09/09 07:28:42;;;;;;;1.30;1.20;;;20.40;49.80;;;;;;6106601;23;20128;-85
2022/09/09 07:31:16;;;;;;;1.40;1.30;;;20.40;49.90;;;;;;6131217;23;20139;-84
2022/09/09 07:33:42;;;;;;;1.00;0.90;;;20.40;49.90;;;;;;6131396;23;20166;-82
2022/09/09 07:36:10;;;;;;;1.10;1.00;;;20.40;49.80;;;;;;6082303;23;20261;-83
2022/09/09 07:38:43;;;;;;;1.08;1.02;;;20.50;49.80;;;;;;6043296;23;20197;-84
2022/09/09 07:41:12;;;;;;;1.20;1.10;;;20.40;49.70;;;;;;6042599;23;20265;-84
2022/09/09 07:43:39;;;;;;;0.90;0.90;;;20.40;49.80;;;;;;6090263;23;20160;-85
2022/09/09 07:46:06;;;;;;;1.08;1.00;;;20.40;49.80;;;;;;6090516;23;20142;-85
2022/09/09 07:48:32;;;;;;;1.15;1.05;;;20.40;49.80;;;;;;6066395;23;20632;-84
2022/09/09 07:51:08;;;;;;;1.05;0.95;;;20.40;49.60;;;;;;6067288;23;20213;-84
2022/09/09 07:53:36;;;;;;;0.80;0.80;;;20.50;49.50;;;;;;6067145;23;20196;-85
2022/09/09 07:56:05;;;;;;;1.00;0.90;;;20.50;49.50;;;;;;6067964;23;20145;-84
2022/09/09 07:58:31;;;;;;;0.70;0.70;;;20.40;49.40;;;;;;6066742;23;20160;-84
2022/09/09 08:00:57;;;;;;;1.17;0.80;;;20.40;49.30;;;;;;6043067;23;20181;-83
2022/09/09 08:03:24;;;;;;;1.10;1.00;;;20.40;49.40;;;;;;6068689;23;20161;-84
2022/09/09 08:05:50;;;;;;;1.48;1.00;;;20.40;49.40;;;;;;6044640;23;20233;-84
2022/09/09 08:08:42;;;;;;;2.42;1.13;;;20.40;49.40;;;;;;6066834;23;20489;-85
2022/09/09 08:11:11;;;;;;;2.22;0.90;;;20.40;49.50;;;;;;6124376;23;20505;-86
2022/09/09 08:13:37;;;;;;;1.90;1.13;;;20.40;49.30;;;;;;6052307;23;20159;-85
2022/09/09 08:16:05;;;;;;;1.85;1.30;;;20.40;49.70;;;;;;6100166;23;20166;-83
2022/09/09 08:18:31;;;;;;;2.55;1.00;;;20.40;50.40;;;;;;6075823;23;20151;-85
2022/09/09 08:20:57;;;;;;;4.85;1.25;;;20.30;50.10;;;;;;6076204;23;20208;-84
2022/09/09 08:23:23;;;;;;;2.45;1.10;;;20.30;50.10;;;;;;6076518;23;20507;-83
2022/09/09 08:25:51;;;;;;;1.70;1.20;;;20.40;50.60;;;;;;6075999;23;20159;-84
2022/09/09 08:28:22;;;;;;;5.78;0.95;;;20.30;50.80;;;;;;6076388;23;20132;-85
2022/09/09 08:30:47;;;;;;;1.33;1.00;;;20.30;50.60;;;;;;6077584;23;20214;-85
2022/09/09 08:33:14;;;;;;;1.75;0.75;;;20.30;50.70;;;;;;6100470;23;20215;-85
2022/09/09 08:35:49;;;;;;;1.95;1.05;;;20.30;50.70;;;;;;6100635;23;20710;-84
2022/09/09 08:38:18;;;;;;;2.40;0.90;;;20.30;50.40;;;;;;6076623;23;20152;-86
2022/09/09 08:41:07;;;;;;;1.65;0.63;;;20.30;50.50;;;;;;6052312;23;20296;-84
2022/09/09 08:43:33;;;;;;;4.03;1.08;;;20.30;50.80;;;;;;6077626;23;20148;-84
2022/09/09 08:46:21;;;;;;;3.40;1.00;;;20.30;51.20;;;;;;6125890;23;20159;-85
2022/09/09 08:48:59;;;;;;;1.10;0.80;;;20.20;50.90;;;;;;6101784;23;20132;-85
2022/09/09 08:51:28;;;;;;;3.25;1.20;;;20.20;51.00;;;;;;6125645;23;20187;-84
2022/09/09 08:53:54;;;;;;;4.63;1.85;;;20.20;51.10;;;;;;6125317;23;20140;-86
2022/09/09 08:56:33;;;;;;;1.52;1.10;;;20.10;51.90;;;;;;6100601;23;20575;-84
2022/09/09 08:59:09;;;;;;;2.40;0.90;;;20.20;51.40;;;;;;6052918;23;20223;-85
2022/09/09 09:01:57;;;;;;;3.03;1.30;;;20.20;51.80;;;;;;6051772;23;20632;-85
2022/09/09 09:04:39;;;;;;;2.28;1.20;;;20.20;51.70;;;;;;6053421;23;20163;-85
2022/09/09 09:07:09;;;;;;;2.55;0.70;;;20.20;52.20;;;;;;6101139;23;20129;-84
2022/09/09 09:09:58;;;;;;;4.00;1.15;;;20.20;51.30;;;;;;6076980;23;20148;-86
2022/09/09 09:12:35;;;;;;;1.50;0.90;;;20.20;51.40;;;;;;6056805;23;20159;-85
2022/09/09 09:15:00;;;;;;;3.08;1.00;;;20.20;51.40;;;;;;6030496;23;20152;-84
2022/09/09 09:17:32;;;;;;;2.50;0.82;;;20.20;51.40;;;;;;6076512;23;20148;-86
2022/09/09 09:19:59;;;;;;;2.53;0.70;;;20.20;52.20;;;;;;6029098;23;20156;-84
2022/09/09 09:22:41;;;;;;;1.70;1.10;;;20.20;51.30;;;;;;6101664;23;20155;-85
2022/09/09 09:25:28;;;;;;;2.22;0.85;;;20.20;51.80;;;;;;6052727;23;20543;-86
2022/09/09 09:28:08;;;;;;;3.30;0.90;;;20.20;51.80;;;;;;6101374;23;20129;-85
2022/09/09 09:30:39;;;;;;;1.05;0.95;;;20.20;51.60;;;;;;6031406;23;20218;-85
2022/09/09 09:33:28;;;;;;;0.80;0.80;;;20.20;51.30;;;;;;6030420;23;20294;-85
2022/09/09 09:35:59;;;;;;;1.80;0.80;;;20.20;51.30;;;;;;6072590;23;20203;-86
2022/09/09 09:38:28;;;;;;;0.98;0.80;;;20.20;51.00;;;;;;6037143;23;20155;-85
2022/09/09 09:40:58;;;;;;;0.80;0.70;;;20.20;51.20;;;;;;6058377;23;20187;-84
2022/09/09 09:43:30;;;;;;;1.83;0.93;;;20.20;50.70;;;;;;6059312;23;20222;-85
2022/09/09 09:45:58;;;;;;;2.95;1.10;;;20.20;50.70;;;;;;6058988;23;20156;-85
2022/09/09 09:48:26;;;;;;;1.75;0.93;;;20.20;50.80;;;;;;6035036;23;20190;-85
2022/09/09 09:50:57;;;;;;;1.75;0.90;;;20.10;50.70;;;;;;6107206;23;20207;-85
2022/09/09 09:53:28;;;;;;;2.35;1.00;;;20.20;50.70;;;;;;6060147;23;20166;-85
2022/09/09 09:55:58;;;;;;;1.52;0.90;;;20.20;50.90;;;;;;6058344;23;20163;-84
2022/09/09 09:58:26;;;;;;;1.27;0.80;;;20.20;50.70;;;;;;6035333;23;20166;-86
2022/09/09 10:00:53;;;;;;;1.13;0.88;;;20.20;50.50;;;;;;6107170;23;20504;-84
2022/09/09 10:03:29;;;;;;;1.58;0.98;;;20.20;50.60;;;;;;6083907;23;20282;-84
2022/09/09 10:05:56;;;;;;;4.15;0.93;;;20.20;50.70;;;;;;6108266;23;20132;-84
2022/09/09 10:08:24;;;;;;;0.63;0.60;;;20.10;50.30;;;;;;6107575;23;20132;-84
2022/09/09 10:11:26;;;;;;;1.15;0.70;;;20.20;50.10;;;;;;6082793;23;20611;-83
2022/09/09 10:14:12;;;;;;;0.95;0.80;;;20.10;50.00;;;;;;6111495;23;20147;-83
2022/09/09 10:17:03;;;;;;;1.05;0.88;;;20.20;50.00;;;;;;6086050;23;20163;-83
2022/09/09 10:19:34;;;;;;;1.30;0.80;;;20.20;50.10;;;;;;6112234;23;20151;-84
2022/09/09 10:23:10;;;;;;;2.60;0.73;;;20.20;50.00;;;;;;6083779;23;20179;-83
2022/09/09 10:25:25;;;;;;;1.17;0.82;;;20.20;49.80;;;;;;5943400;24;20156;-84
2022/09/09 10:28:05;;;;;;;1.00;0.70;;;20.30;49.60;;;;;;5898151;24;20658;-85
2022/09/09 10:30:43;;;;;;;3.78;0.85;;;20.30;50.20;;;;;;5920154;24;20165;-84
2022/09/09 10:33:22;;;;;;;2.55;0.73;;;20.30;49.60;;;;;;5919384;24;20173;-84
2022/09/09 10:35:58;;;;;;;1.63;0.85;;;20.40;49.40;;;;;;5938514;24;20709;-84
2022/09/09 10:38:45;;;;;;;1.50;0.82;;;20.40;49.50;;;;;;5949729;24;20213;-83
2022/09/09 10:41:20;;;;;;;5.00;0.80;;;20.40;49.80;;;;;;5945594;24;20207;-84
2022/09/09 10:44:17;;;;;;;1.92;0.70;;;20.40;49.80;;;;;;5949853;24;20221;-83
2022/09/09 10:46:55;;;;;;;1.15;0.80;;;20.40;49.80;;;;;;5922433;24;20593;-84
2022/09/09 10:49:45;;;;;;;1.48;1.08;;;20.40;49.50;;;;;;5948412;24;20157;-83
2022/09/09 10:52:21;;;;;;;1.80;0.95;;;20.40;49.60;;;;;;5926543;24;20202;-83
2022/09/09 10:55:25;;;;;;;3.15;1.40;;;20.40;49.70;;;;;;6006651;23;20204;-83
2022/09/09 10:57:54;;;;;;;1.63;0.90;;;20.40;49.90;;;;;;6040883;23;20147;-84
2022/09/09 11:00:22;;;;;;;1.00;0.80;;;20.30;49.80;;;;;;5972565;23;20227;-83
2022/09/09 11:03:01;;;;;;;1.83;0.98;;;20.30;49.70;;;;;;6084524;23;20156;-83
2022/09/09 11:05:41;;;;;;;1.88;0.90;;;20.30;50.40;;;;;;6031166;23;20163;-83
2022/09/09 11:08:12;;;;;;;1.98;1.10;;;20.30;50.50;;;;;;6078821;23;20159;-84
2022/09/09 11:11:16;;;;;;;2.15;0.90;;;20.30;51.20;;;;;;6077855;23;20133;-82
2022/09/09 11:14:09;;;;;;;2.13;1.05;;;20.20;51.40;;;;;;6109706;23;20218;-85
2022/09/09 11:16:48;;;;;;;4.20;0.90;;;20.20;51.20;;;;;;6129842;23;20152;-84
2022/09/09 11:19:43;;;;;;;1.00;0.80;;;20.20;51.10;;;;;;6077566;23;20615;-84
2022/09/09 11:22:30;;;;;;;1.50;1.05;;;20.20;51.00;;;;;;6029266;23;20192;-84
2022/09/09 11:25:15;;;;;;;1.15;0.85;;;20.30;51.20;;;;;;6077953;23;20148;-83
2022/09/09 11:28:03;;;;;;;1.05;0.60;;;20.30;51.20;;;;;;6036730;23;20548;-85
2022/09/09 11:30:59;;;;;;;1.23;0.80;;;20.30;50.80;;;;;;6101312;23;20141;-85
2022/09/09 11:33:49;;;;;;;0.90;0.80;;;20.30;51.30;;;;;;6077613;23;20156;-84
2022/09/09 11:36:55;;;;;;;0.75;0.75;;;20.30;51.20;;;;;;6100366;23;20207;-84
2022/09/09 11:39:46;;;;;;;1.33;0.80;;;20.20;50.70;;;;;;6085774;23;20154;-85
2022/09/09 11:42:20;;;;;;;2.08;0.50;;;20.30;50.80;;;;;;6054947;23;20266;-83
2022/09/09 11:44:48;;;;;;;0.65;0.65;;;20.30;50.60;;;;;;6126891;23;20183;-84
2022/09/09 11:47:21;;;;;;;1.08;0.82;;;20.30;50.60;;;;;;6005102;23;20162;-85
2022/09/09 11:49:48;;;;;;;0.63;0.63;;;20.40;50.60;;;;;;6030348;23;20160;-85
2022/09/09 11:52:45;;;;;;;0.90;0.70;;;20.30;50.60;;;;;;6028270;23;20163;-84
2022/09/09 11:55:26;;;;;;;1.52;0.90;;;20.30;50.70;;;;;;6013159;23;20165;-84
2022/09/09 11:58:01;;;;;;;0.93;0.82;;;20.30;50.60;;;;;;5990728;23;20153;-83
2022/09/09 12:00:40;;;;;;;0.60;0.60;;;20.30;50.70;;;;;;5990286;23;20189;-84
2022/09/09 12:03:05;;;;;;;0.80;0.80;;;20.30;50.50;;;;;;6037756;23;20134;-83
2022/09/09 12:05:41;;;;;;;1.23;0.90;;;20.30;50.50;;;;;;5990363;23;20174;-83
2022/09/09 12:08:07;;;;;;;1.80;0.90;;;20.30;50.80;;;;;;5990795;23;20154;-84
2022/09/09 12:10:35;;;;;;;0.88;0.80;;;20.20;50.60;;;;;;6014113;23;20162;-85
2022/09/09 12:13:17;;;;;;;1.27;0.80;;;20.30;50.90;;;;;;6037470;23;20146;-84
2022/09/09 12:15:53;;;;;;;1.10;1.00;;;20.30;50.00;;;;;;6061419;23;20157;-83
2022/09/09 12:18:25;;;;;;;1.20;0.80;;;20.30;50.10;;;;;;6014035;23;20164;-85
2022/09/09 12:21:01;;;;;;;0.75;0.70;;;20.30;50.00;;;;;;6013893;23;20196;-85
2022/09/09 12:23:52;;;;;;;2.83;0.90;;;20.30;50.00;;;;;;6061418;23;20158;-83
2022/09/09 12:26:41;;;;;;;0.80;0.80;;;20.40;50.00;;;;;;6090818;23;20275;-84
2022/09/09 12:29:45;;;;;;;2.53;0.90;;;20.30;49.80;;;;;;6101006;23;20145;-83
2022/09/09 12:32:16;;;;;;;1.00;0.90;;;20.40;49.90;;;;;;6100985;23;20191;-83
2022/09/09 12:34:56;;;;;;;1.00;0.95;;;20.30;50.10;;;;;;6076759;23;20199;-85
2022/09/09 12:37:35;;;;;;;1.35;1.15;;;20.30;50.40;;;;;;6080099;23;20207;-83
2022/09/09 12:40:03;;;;;;;0.95;0.90;;;20.30;50.40;;;;;;6078633;23;20495;-84
2022/09/09 12:42:35;;;;;;;0.88;0.85;;;20.30;50.40;;;;;;6076948;23;20500;-82
2022/09/09 12:45:04;;;;;;;1.67;0.77;;;20.30;50.00;;;;;;6054743;23;20284;-82
2022/09/09 12:47:40;;;;;;;1.00;0.90;;;20.30;50.00;;;;;;6028917;23;20346;-83
2022/09/09 12:50:17;;;;;;;1.10;0.90;;;20.30;49.90;;;;;;6053918;23;20206;-83
2022/09/09 12:52:47;;;;;;;1.52;1.10;;;20.30;50.00;;;;;;6031304;23;20583;-84
2022/09/09 12:55:24;;;;;;;0.80;0.80;;;20.30;50.00;;;;;;6051995;23;20501;-84
2022/09/09 12:57:52;;;;;;;1.00;0.93;;;20.30;50.00;;;;;;6052664;23;20155;-83
2022/09/09 13:00:22;;;;;;;1.15;0.90;;;20.40;49.80;;;;;;6027876;23;20599;-84
2022/09/09 13:02:52;;;;;;;0.82;0.82;;;20.30;49.80;;;;;;6029788;23;20611;-83
2022/09/09 13:05:22;;;;;;;1.15;0.80;;;20.40;49.80;;;;;;6029203;23;20162;-83
2022/09/09 13:07:47;;;;;;;1.20;1.10;;;20.40;49.80;;;;;;6077312;23;20133;-84
2022/09/09 13:10:14;;;;;;;1.08;1.08;;;20.40;50.40;;;;;;6076387;23;20166;-85
2022/09/09 13:12:41;;;;;;;0.93;0.93;;;20.40;49.80;;;;;;6052915;23;20163;-83
2022/09/09 13:15:14;;;;;;;1.17;1.00;;;20.40;49.70;;;;;;6053255;23;20477;-84
2022/09/09 13:17:40;;;;;;;1.48;1.10;;;20.40;49.70;;;;;;6101133;23;20215;-82
2022/09/09 13:20:14;;;;;;;1.15;1.00;;;20.40;50.30;;;;;;6100807;23;20132;-85